Time,TemperatureF,DewpointF,PressureIn,WindDirection,WindDirectionDegrees,WindSpeedMPH,WindSpeedGustMPH,Humidity,HourlyPrecipIn,Conditions,Clouds,dailyrainin,SolarRadiationWatts/m^2,SoftwareType,DateUTC
2013-01-25 00:03:00,18.3,7.8,30.44,ESE,108,0.0,0.0,63,0.00,CLR,,0.00,0.0,WeatherDisplay:10.37,2013-01-25 06:03:00,
2013-01-25 00:08:00,18.3,7.8,30.43,NE,44,1.1,0.0,63,0.00,CLR,,0.00,0.0,WeatherDisplay:10.37,2013-01-25 06:08:00,
2013-01-25 00:13:00,18.3,7.8,30.42,North,360,3.5,0.0,63,0.00,CLR,,0.00,0.0,WeatherDisplay:10.37,2013-01-25 06:13:00,
2013-01-25 00:18:00,18.3,7.4,30.43,North,356,0.0,0.1,62,0.00,CLR,,0.00,0.0,WeatherDisplay:10.37,2013-01-25 06:18:00,
2013-01-25 00:23:00,18.4,7.2,30.42,East,90,1.1,1.1,61,0.00,CLR,,0.00,0.0,WeatherDisplay:10.37,2013-01-25 06:23:00,
2013-01-25 00:28:00,18.4,7.2,30.42,ESE,123,1.1,1.1,61,0.00,CLR,,0.00,0.0,WeatherDisplay:10.37,2013-01-25 06:28:00,
2013-01-25 00:33:00,18.4,7.2,30.41,NE,43,2.3,2.3,61,0.00,CLR,,0.00,0.0,WeatherDisplay:10.37,2013-01-25 06:33:00,
2013-01-25 00:38:00,18.4,6.8,30.41,East,83,0.0,0.0,60,0.00,CLR,,0.00,0.0,WeatherDisplay:10.37,2013-01-25 06:38:00,
2013-01-25 00:43:00,18.4,6.4,30.41,East,82,2.3,2.3,59,0.00,CLR,,0.00,0.0,WeatherDisplay:10.37,2013-01-25 06:43:00,
2013-01-25 00:48:00,18.4,6.4,30.40,SSW,195,2.3,2.3,59,0.00,CLR,,0.00,0.0,WeatherDisplay:10.37,2013-01-25 06:48:00,
2013-01-25 00:53:00,18.4,6.8,30.40,SSW,194,0.0,0.0,60,0.00,CLR,,0.00,0.0,WeatherDisplay:10.37,2013-01-25 06:53:00,
2013-01-25 00:58:00,18.3,6.7,30.40,ESE,110,0.0,0.0,60,0.00,CLR,,0.00,0.0,WeatherDisplay:10.37,2013-01-25 06:58:00,
2013-01-25 01:03:00,18.3,6.7,30.40,ENE,78,2.3,2.3,60,0.00,CLR,,0.00,0.0,WeatherDisplay:10.37,2013-01-25 07:03:00,
2013-01-25 01:08:00,18.3,6.7,30.39,SE,134,0.0,0.0,60,0.00,CLR,,0.00,0.0,WeatherDisplay:10.37,2013-01-25 07:08:00,
2013-01-25 01:13:00,18.2,6.6,30.39,South,173,3.5,0.0,60,0.00,CLR,,0.00,0.0,WeatherDisplay:10.37,2013-01-25 07:13:00,
2013-01-25 01:18:00,18.2,7.0,30.38,ENE,69,0.0,0.0,61,0.00,CLR,,0.00,0.0,WeatherDisplay:10.37,2013-01-25 07:18:00,
2013-01-25 01:23:00,18.2,7.0,30.39,ESE,111,0.0,0.0,61,0.00,CLR,,0.00,0.0,WeatherDisplay:10.37,2013-01-25 07:23:00,
2013-01-25 01:28:00,18.2,7.0,30.39,ESE,109,2.3,2.3,61,0.00,CLR,,0.00,0.0,WeatherDisplay:10.37,2013-01-25 07:28:00,
2013-01-25 01:33:00,18.1,6.9,30.39,South,171,1.1,0.0,61,0.00,CLR,,0.00,0.0,WeatherDisplay:10.37,2013-01-25 07:33:00,
2013-01-25 01:38:00,18.1,6.9,30.39,SSE,163,1.1,1.1,61,0.00,CLR,,0.00,0.0,WeatherDisplay:10.37,2013-01-25 07:38:00,
2013-01-25 01:43:00,18.1,6.5,30.39,SSE,154,2.3,2.3,60,0.00,CLR,,0.00,0.0,WeatherDisplay:10.37,2013-01-25 07:43:00,
2013-01-25 01:48:00,18.2,7.0,30.39,SSE,154,0.0,0.0,61,0.00,CLR,,0.00,0.0,WeatherDisplay:10.37,2013-01-25 07:48:00,
2013-01-25 01:53:00,18.2,7.0,30.38,NNE,31,1.1,0.0,61,0.00,CLR,,0.00,0.0,WeatherDisplay:10.37,2013-01-25 07:53:00,
2013-01-25 01:58:00,18.1,7.3,30.38,ESE,108,0.0,0.7,62,0.00,CLR,,0.00,0.0,WeatherDisplay:10.37,2013-01-25 07:58:00,
2013-01-25 02:03:00,18.1,7.3,30.38,ESE,115,0.0,0.0,62,0.00,CLR,,0.00,0.0,WeatherDisplay:10.37,2013-01-25 08:03:00,
2013-01-25 02:08:00,18.1,7.3,30.37,SSE,148,0.0,0.0,62,0.00,CLR,,0.00,0.0,WeatherDisplay:10.37,2013-01-25 08:08:00,
2013-01-25 02:13:00,18.1,7.6,30.37,SSE,148,1.1,1.1,63,0.00,CLR,,0.00,0.0,WeatherDisplay:10.37,2013-01-25 08:13:00,
2013-01-25 02:18:00,18.1,7.6,30.36,SSE,148,0.0,0.0,63,0.00,CLR,,0.00,0.0,WeatherDisplay:10.37,2013-01-25 08:18:00,
2013-01-25 02:23:00,18.1,7.3,30.36,SSE,148,0.0,0.0,62,0.00,CLR,,0.00,0.0,WeatherDisplay:10.37,2013-01-25 08:23:00,
2013-01-25 02:28:00,18.1,7.6,30.35,SSE,148,1.0,0.0,63,0.00,CLR,,0.00,0.0,WeatherDisplay:10.37,2013-01-25 08:28:00,
2013-01-25 02:33:00,18.1,7.6,30.35,South,171,1.1,1.1,63,0.00,CLR,,0.00,0.0,WeatherDisplay:10.37,2013-01-25 08:33:00,
2013-01-25 02:38:00,18.1,7.6,30.34,SSE,150,3.5,3.5,63,0.00,CLR,,0.00,0.0,WeatherDisplay:10.37,2013-01-25 08:38:00,
2013-01-25 02:43:00,18.1,7.6,30.34,SE,132,3.5,3.5,63,0.00,CLR,,0.00,0.0,WeatherDisplay:10.37,2013-01-25 08:43:00,
2013-01-25 02:48:00,18.1,7.6,30.33,ESE,108,2.3,2.3,63,0.00,CLR,,0.00,0.0,WeatherDisplay:10.37,2013-01-25 08:48:00,
2013-01-25 02:53:00,18.1,8.0,30.32,ENE,74,0.0,0.1,64,0.00,CLR,,0.00,0.0,WeatherDisplay:10.37,2013-01-25 08:53:00,
2013-01-25 02:58:00,18.1,8.0,30.32,NNE,29,2.3,2.3,64,0.00,CLR,,0.00,0.0,WeatherDisplay:10.37,2013-01-25 08:58:00,
2013-01-25 03:03:00,18.0,7.9,30.31,East,79,1.1,1.1,64,0.00,CLR,,0.00,0.0,WeatherDisplay:10.37,2013-01-25 09:03:00,
2013-01-25 03:08:00,18.1,8.0,30.31,NE,50,0.0,0.0,64,0.00,CLR,,0.00,0.0,WeatherDisplay:10.37,2013-01-25 09:08:00,
2013-01-25 03:13:00,18.1,8.0,30.31,SE,137,2.3,2.3,64,0.00,CLR,,0.00,0.0,WeatherDisplay:10.37,2013-01-25 09:13:00,
2013-01-25 03:18:00,18.1,8.0,30.30,East,83,1.1,1.1,64,0.00,CLR,,0.00,0.0,WeatherDisplay:10.37,2013-01-25 09:18:00,
2013-01-25 03:23:00,18.1,8.0,30.30,East,83,0.0,0.0,64,0.00,CLR,,0.00,0.0,WeatherDisplay:10.37,2013-01-25 09:23:00,
2013-01-25 03:28:00,18.1,8.0,30.29,East,81,0.0,0.0,64,0.00,CLR,,0.00,0.0,WeatherDisplay:10.37,2013-01-25 09:28:00,
2013-01-25 03:33:00,18.1,8.3,30.29,East,81,1.1,0.0,65,0.00,CLR,,0.00,0.0,WeatherDisplay:10.37,2013-01-25 09:33:00,
2013-01-25 03:38:00,18.1,8.3,30.28,East,81,1.1,0.0,65,0.00,CLR,,0.00,0.0,WeatherDisplay:10.37,2013-01-25 09:38:00,
2013-01-25 03:43:00,18.1,8.3,30.28,SE,129,0.0,0.5,65,0.00,CLR,,0.00,0.0,WeatherDisplay:10.37,2013-01-25 09:43:00,
2013-01-25 03:48:00,18.1,8.3,30.28,SE,129,0.0,0.0,65,0.00,CLR,,0.00,0.0,WeatherDisplay:10.37,2013-01-25 09:48:00,
2013-01-25 03:53:00,18.1,8.3,30.27,NE,50,2.3,0.0,65,0.00,CLR,,0.00,0.0,WeatherDisplay:10.37,2013-01-25 09:53:00,
2013-01-25 03:58:00,18.1,8.6,30.27,ESE,121,2.3,0.0,66,0.00,CLR,,0.00,0.0,WeatherDisplay:10.37,2013-01-25 09:58:00,
2013-01-25 04:03:00,18.1,8.6,30.27,ENE,71,2.3,0.0,66,0.00,CLR,,0.00,0.0,WeatherDisplay:10.37,2013-01-25 10:03:00,
2013-01-25 04:08:00,18.0,8.9,30.27,ENE,69,1.1,1.1,67,0.00,CLR,,0.00,0.0,WeatherDisplay:10.37,2013-01-25 10:08:00,
2013-01-25 04:13:00,18.0,8.9,30.26,ESE,116,0.0,0.0,67,0.00,CLR,,0.00,0.0,WeatherDisplay:10.37,2013-01-25 10:13:00,
2013-01-25 04:18:00,17.9,9.1,30.26,NE,56,0.0,0.0,68,0.00,CLR,,0.00,0.0,WeatherDisplay:10.37,2013-01-25 10:18:00,
2013-01-25 04:23:00,17.8,9.7,30.25,NE,56,2.3,2.3,70,0.00,CLR,,0.00,0.0,WeatherDisplay:10.37,2013-01-25 10:23:00,
2013-01-25 04:28:00,17.7,9.9,30.25,East,88,0.0,0.2,71,0.00,CLR,,0.00,0.0,WeatherDisplay:10.37,2013-01-25 10:28:00,
2013-01-25 04:33:00,17.6,10.1,30.25,NE,48,3.5,0.0,72,0.00,CLR,,0.00,0.0,WeatherDisplay:10.37,2013-01-25 10:33:00,
2013-01-25 04:38:00,17.4,9.9,30.25,East,83,1.1,1.1,72,0.00,CLR,,0.00,0.0,WeatherDisplay:10.37,2013-01-25 10:38:00,
2013-01-25 04:43:00,17.4,10.5,30.25,NNE,27,3.5,3.5,74,0.00,CLR,,0.00,0.0,WeatherDisplay:10.37,2013-01-25 10:43:00,
2013-01-25 04:48:00,17.2,10.9,30.25,North,356,0.0,0.1,76,0.00,CLR,,0.00,0.0,WeatherDisplay:10.37,2013-01-25 10:48:00,
2013-01-25 04:53:00,17.1,11.1,30.25,SE,142,3.5,3.5,77,0.00,CLR,,0.00,0.0,WeatherDisplay:10.37,2013-01-25 10:53:00,
2013-01-25 04:58:00,16.9,11.2,30.25,ESE,110,0.0,0.0,78,0.00,CLR,,0.00,0.0,WeatherDisplay:10.37,2013-01-25 10:58:00,
2013-01-25 05:03:00,16.8,11.4,30.24,SE,132,0.0,0.5,79,0.00,CLR,,0.00,0.0,WeatherDisplay:10.37,2013-01-25 11:03:00,
2013-01-25 05:08:00,16.7,11.6,30.24,SE,137,0.0,0.0,80,0.00,CLR,,0.00,0.0,WeatherDisplay:10.37,2013-01-25 11:08:00,
2013-01-25 05:13:00,16.6,11.8,30.24,SSE,152,1.1,1.1,81,0.00,CLR,,0.00,0.0,WeatherDisplay:10.37,2013-01-25 11:13:00,
2013-01-25 05:18:00,16.6,11.8,30.23,SSE,152,0.0,0.0,81,0.00,CLR,,0.00,0.0,WeatherDisplay:10.37,2013-01-25 11:18:00,
2013-01-25 05:23:00,16.5,12.0,30.23,SSE,152,1.0,1.0,82,0.00,CLR,,0.00,0.0,WeatherDisplay:10.37,2013-01-25 11:23:00,
2013-01-25 05:28:00,16.5,12.0,30.23,SSE,152,0.0,0.1,82,0.00,CLR,,0.00,0.0,WeatherDisplay:10.37,2013-01-25 11:28:00,
2013-01-25 05:33:00,16.5,12.2,30.23,ESE,108,0.0,0.0,83,0.00,CLR,,0.00,0.0,WeatherDisplay:10.37,2013-01-25 11:33:00,
2013-01-25 05:38:00,16.5,12.2,30.23,ESE,108,0.0,0.0,83,0.00,CLR,,0.00,0.0,WeatherDisplay:10.37,2013-01-25 11:38:00,
2013-01-25 05:43:00,16.5,12.2,30.22,SSE,167,1.1,0.0,83,0.00,CLR,,0.00,0.0,WeatherDisplay:10.37,2013-01-25 11:43:00,
2013-01-25 05:48:00,16.4,12.4,30.22,SE,126,3.5,3.5,84,0.00,CLR,,0.00,0.0,WeatherDisplay:10.37,2013-01-25 11:48:00,
2013-01-25 05:53:00,16.4,12.4,30.22,SSE,166,0.0,0.0,84,0.00,CLR,,0.00,0.0,WeatherDisplay:10.37,2013-01-25 11:53:00,
2013-01-25 05:58:00,16.4,12.4,30.22,SSE,158,2.3,2.3,84,0.00,CLR,,0.00,0.0,WeatherDisplay:10.37,2013-01-25 11:58:00,
2013-01-25 06:03:00,16.4,12.4,30.22,East,97,2.3,2.3,84,0.00,CLR,,0.00,0.0,WeatherDisplay:10.37,2013-01-25 12:03:00,
2013-01-25 06:08:00,16.4,12.7,30.21,SSE,150,3.5,3.5,85,0.00,CLR,,0.00,0.0,WeatherDisplay:10.37,2013-01-25 12:08:00,
2013-01-25 06:13:00,16.4,12.7,30.21,East,96,1.1,0.0,85,0.00,CLR,,0.00,0.0,WeatherDisplay:10.37,2013-01-25 12:13:00,
2013-01-25 06:18:00,16.4,12.7,30.21,SSE,166,2.3,0.0,85,0.00,CLR,,0.00,0.0,WeatherDisplay:10.37,2013-01-25 12:18:00,
2013-01-25 06:23:00,16.4,12.7,30.21,SSW,200,1.1,1.1,85,0.00,CLR,,0.00,0.0,WeatherDisplay:10.37,2013-01-25 12:23:00,
2013-01-25 06:28:00,16.4,12.7,30.20,ESE,123,0.0,0.3,85,0.00,CLR,,0.00,0.0,WeatherDisplay:10.37,2013-01-25 12:28:00,
2013-01-25 06:33:00,16.4,12.7,30.20,SE,124,0.0,0.0,85,0.00,CLR,,0.00,0.0,WeatherDisplay:10.37,2013-01-25 12:33:00,
2013-01-25 06:38:00,16.4,12.7,30.19,SE,124,0.0,0.0,85,0.00,CLR,,0.00,0.0,WeatherDisplay:10.37,2013-01-25 12:38:00,
2013-01-25 06:43:00,16.4,12.7,30.19,SE,144,3.5,3.5,85,0.00,CLR,,0.00,0.0,WeatherDisplay:10.37,2013-01-25 12:43:00,
2013-01-25 06:48:00,16.4,12.7,30.19,SE,143,0.0,0.0,85,0.00,CLR,,0.00,0.0,WeatherDisplay:10.37,2013-01-25 12:48:00,
2013-01-25 06:53:00,16.4,12.7,30.19,SSE,148,3.5,3.5,85,0.00,CLR,,0.00,0.0,WeatherDisplay:10.37,2013-01-25 12:53:00,
2013-01-25 06:58:00,16.4,12.7,30.18,SSE,152,2.3,2.3,85,0.00,CLR,,0.00,0.0,WeatherDisplay:10.37,2013-01-25 12:58:00,
2013-01-25 07:03:00,16.4,12.9,30.18,SSE,152,0.0,0.0,86,0.00,OVC,,0.00,0.0,WeatherDisplay:10.37,2013-01-25 13:03:00,
2013-01-25 07:08:00,16.5,13.0,30.17,SSE,152,0.0,0.0,86,0.00,OVC,,0.00,0.0,WeatherDisplay:10.37,2013-01-25 13:08:00,
2013-01-25 07:13:00,16.5,13.0,30.18,SSW,209,3.5,3.5,86,0.00,OVC,,0.00,0.0,WeatherDisplay:10.37,2013-01-25 13:13:00,
2013-01-25 07:18:00,16.5,13.0,30.18,South,177,2.3,2.3,86,0.00,OVC,,0.00,0.0,WeatherDisplay:10.37,2013-01-25 13:18:00,
2013-01-25 07:23:00,16.6,13.1,30.18,South,177,0.0,0.0,86,0.00,OVC,,0.00,0.0,WeatherDisplay:10.37,2013-01-25 13:23:00,
2013-01-25 07:28:00,16.6,13.1,30.17,South,177,0.0,0.3,86,0.00,OVC,,0.00,0.0,WeatherDisplay:10.37,2013-01-25 13:28:00,
2013-01-25 07:33:00,16.7,13.2,30.17,SE,137,3.5,0.0,86,0.00,BKN,,0.00,5.0,WeatherDisplay:10.37,2013-01-25 13:33:00,
2013-01-25 07:38:00,16.7,13.2,30.17,SE,131,3.5,3.5,86,0.00,BKN,,0.00,7.0,WeatherDisplay:10.37,2013-01-25 13:38:00,
2013-01-25 07:43:00,16.8,13.3,30.17,ESE,114,2.3,2.3,86,0.00,BKN,,0.00,7.0,WeatherDisplay:10.37,2013-01-25 13:43:00,
2013-01-25 07:48:00,16.9,13.4,30.17,SE,139,2.3,2.3,86,0.00,BKN,,0.00,7.0,WeatherDisplay:10.37,2013-01-25 13:48:00,
2013-01-25 07:53:00,16.9,13.4,30.16,ESE,108,3.5,3.5,86,0.00,BKN,,0.00,12.0,WeatherDisplay:10.37,2013-01-25 13:53:00,
2013-01-25 07:58:00,17.1,13.6,30.16,ESE,123,1.0,1.0,86,0.00,BKN,,0.00,14.0,WeatherDisplay:10.37,2013-01-25 13:58:00,
2013-01-25 08:03:00,17.1,13.6,30.16,SSW,192,0.0,0.0,86,0.00,BKN,,0.00,16.0,WeatherDisplay:10.37,2013-01-25 14:03:00,
2013-01-25 08:08:00,17.2,13.7,30.16,SE,131,3.5,0.0,86,0.00,BKN,,0.00,19.0,WeatherDisplay:10.37,2013-01-25 14:08:00,
2013-01-25 08:13:00,17.3,13.8,30.16,SE,144,1.1,1.1,86,0.00,BKN,,0.00,23.0,WeatherDisplay:10.37,2013-01-25 14:13:00,
2013-01-25 08:18:00,17.4,13.7,30.16,ESE,119,3.0,3.0,85,0.00,BKN,,0.00,25.0,WeatherDisplay:10.37,2013-01-25 14:18:00,
2013-01-25 08:23:00,17.6,13.9,30.15,SSE,165,2.3,2.3,85,0.00,BKN,,0.00,26.0,WeatherDisplay:10.37,2013-01-25 14:23:00,
2013-01-25 08:28:00,17.7,14.0,30.15,South,173,3.5,3.5,85,0.00,BKN,,0.00,28.0,WeatherDisplay:10.37,2013-01-25 14:28:00,
2013-01-25 08:33:00,17.8,14.1,30.15,South,169,3.5,3.5,85,0.00,BKN,,0.00,28.0,WeatherDisplay:10.37,2013-01-25 14:33:00,
2013-01-25 08:38:00,17.9,13.9,30.15,SSE,163,2.3,2.3,84,0.00,BKN,,0.00,33.0,WeatherDisplay:10.37,2013-01-25 14:38:00,
2013-01-25 08:43:00,18.0,14.0,30.14,SE,127,3.5,3.5,84,0.00,BKN,,0.00,46.0,WeatherDisplay:10.37,2013-01-25 14:43:00,
2013-01-25 08:48:00,18.2,14.2,30.14,South,180,4.6,4.6,84,0.00,BKN,,0.00,53.0,WeatherDisplay:10.37,2013-01-25 14:48:00,
2013-01-25 08:53:00,18.3,14.3,30.14,South,179,3.5,3.5,84,0.00,BKN,,0.00,49.0,WeatherDisplay:10.37,2013-01-25 14:53:00,
2013-01-25 08:58:00,18.4,14.4,30.14,SE,135,5.0,5.0,84,0.00,BKN,,0.00,46.0,WeatherDisplay:10.37,2013-01-25 14:58:00,
2013-01-25 09:03:00,18.5,14.2,30.14,South,189,4.0,4.0,83,0.00,BKN,,0.00,58.0,WeatherDisplay:10.37,2013-01-25 15:03:00,
2013-01-25 09:08:00,18.6,14.3,30.13,SSW,199,3.5,3.5,83,0.00,BKN,,0.00,58.0,WeatherDisplay:10.37,2013-01-25 15:08:00,
2013-01-25 09:13:00,18.7,14.4,30.13,SSE,167,9.2,9.2,83,0.00,BKN,,0.00,60.0,WeatherDisplay:10.37,2013-01-25 15:13:00,
2013-01-25 09:18:00,18.7,14.4,30.13,SSE,158,5.8,5.8,83,0.00,BKN,,0.00,58.0,WeatherDisplay:10.37,2013-01-25 15:18:00,
2013-01-25 09:23:00,18.8,14.5,30.13,SSE,163,9.2,9.2,83,0.00,BKN,,0.00,65.0,WeatherDisplay:10.37,2013-01-25 15:23:00,
2013-01-25 09:28:00,18.9,14.6,30.13,South,189,6.0,6.0,83,0.00,BKN,,0.00,65.0,WeatherDisplay:10.37,2013-01-25 15:28:00,
2013-01-25 09:33:00,19.0,14.7,30.13,South,169,5.0,5.0,83,0.00,BKN,,0.00,65.0,WeatherDisplay:10.37,2013-01-25 15:33:00,
2013-01-25 09:38:00,19.0,14.7,30.13,SSE,156,6.9,6.9,83,0.00,BKN,,0.00,62.0,WeatherDisplay:10.37,2013-01-25 15:38:00,
2013-01-25 09:43:00,19.0,14.7,30.12,South,178,6.9,6.9,83,0.00,BKN,,0.00,62.0,WeatherDisplay:10.37,2013-01-25 15:43:00,
2013-01-25 09:48:00,19.2,14.9,30.12,SW,227,3.5,3.5,83,0.00,BKN,,0.00,65.0,WeatherDisplay:10.37,2013-01-25 15:48:00,
2013-01-25 09:53:00,19.4,15.1,30.12,SW,227,3.5,3.5,83,0.00,BKN,,0.00,69.0,WeatherDisplay:10.37,2013-01-25 15:53:00,
2013-01-25 09:58:00,19.5,15.2,30.12,SSW,192,5.8,5.8,83,0.00,BKN,,0.00,65.0,WeatherDisplay:10.37,2013-01-25 15:58:00,
2013-01-25 10:03:00,19.5,14.9,30.12,South,181,5.8,5.8,82,0.00,BKN,,0.00,72.0,WeatherDisplay:10.37,2013-01-25 16:03:00,
2013-01-25 10:08:00,19.6,15.0,30.12,SSE,168,3.5,3.5,82,0.00,BKN,,0.00,63.0,WeatherDisplay:10.37,2013-01-25 16:08:00,
2013-01-25 10:13:00,19.7,15.1,30.12,SSW,193,3.0,3.0,82,0.00,BKN,,0.00,60.0,WeatherDisplay:10.37,2013-01-25 16:13:00,
2013-01-25 10:18:00,19.8,15.2,30.12,South,177,5.8,5.8,82,0.00,BKN,,0.00,67.0,WeatherDisplay:10.37,2013-01-25 16:18:00,
2013-01-25 10:23:00,19.8,15.2,30.11,South,173,5.8,5.8,82,0.00,BKN,,0.00,65.0,WeatherDisplay:10.37,2013-01-25 16:23:00,
2013-01-25 10:29:00,19.7,15.1,30.11,South,175,3.5,3.5,82,0.00,BKN,,0.00,74.0,WeatherDisplay:10.37,2013-01-25 16:29:00,
2013-01-25 10:34:00,19.8,15.2,30.11,South,185,3.5,3.5,82,0.00,BKN,,0.00,77.0,WeatherDisplay:10.37,2013-01-25 16:34:00,
2013-01-25 10:39:00,19.8,15.2,30.10,SSE,163,3.5,3.5,82,0.00,BKN,,0.00,81.0,WeatherDisplay:10.37,2013-01-25 16:39:00,
2013-01-25 10:44:00,20.0,15.7,30.10,South,188,6.9,6.9,83,0.00,BKN,,0.00,91.0,WeatherDisplay:10.37,2013-01-25 16:44:00,
2013-01-25 10:49:00,20.1,15.5,30.09,South,175,10.4,10.4,82,0.00,BKN,,0.00,90.0,WeatherDisplay:10.37,2013-01-25 16:49:00,
2013-01-25 10:54:00,20.2,15.6,30.09,SSW,212,5.0,5.0,82,0.00,BKN,,0.00,90.0,WeatherDisplay:10.37,2013-01-25 16:54:00,
2013-01-25 10:59:00,20.3,15.7,30.08,SSW,196,6.9,6.9,82,0.00,BKN,,0.00,105.0,WeatherDisplay:10.37,2013-01-25 16:59:00,
2013-01-25 11:04:00,20.5,15.9,30.08,South,183,3.5,3.5,82,0.00,BKN,,0.00,109.0,WeatherDisplay:10.37,2013-01-25 17:04:00,
2013-01-25 11:09:00,20.6,16.0,30.07,SSW,194,3.5,3.5,82,0.00,BKN,,0.00,90.0,WeatherDisplay:10.37,2013-01-25 17:09:00,
2013-01-25 11:14:00,20.7,16.1,30.07,South,189,3.5,3.5,82,0.00,BKN,,0.00,86.0,WeatherDisplay:10.37,2013-01-25 17:14:00,
2013-01-25 11:19:00,20.7,15.8,30.07,SSE,162,9.2,9.2,81,0.00,BKN,,0.00,95.0,WeatherDisplay:10.37,2013-01-25 17:19:00,
2013-01-25 11:24:00,20.8,15.9,30.06,SW,214,3.5,3.5,81,0.00,BKN,,0.00,118.0,WeatherDisplay:10.37,2013-01-25 17:24:00,
2013-01-25 11:29:00,20.9,16.0,30.05,SSE,163,6.9,6.9,81,0.00,BKN,,0.00,144.0,WeatherDisplay:10.37,2013-01-25 17:29:00,
2013-01-25 11:34:00,21.0,16.1,30.05,SSE,159,3.5,3.5,81,0.00,BKN,,0.00,130.0,WeatherDisplay:10.37,2013-01-25 17:34:00,
2013-01-25 11:39:00,21.3,16.4,30.05,South,179,5.8,5.8,81,0.00,BKN,,0.00,134.0,WeatherDisplay:10.37,2013-01-25 17:39:00,
2013-01-25 11:44:00,21.4,16.2,30.05,South,182,10.4,10.4,80,0.00,BKN,,0.00,148.0,WeatherDisplay:10.37,2013-01-25 17:44:00,
2013-01-25 11:49:00,21.5,16.3,30.05,SSW,195,4.6,4.6,80,0.00,BKN,,0.00,144.0,WeatherDisplay:10.37,2013-01-25 17:49:00,
2013-01-25 11:54:00,21.7,16.5,30.05,WSW,240,5.8,5.8,80,0.00,BKN,,0.00,127.0,WeatherDisplay:10.37,2013-01-25 17:54:00,
2013-01-25 11:59:00,21.8,16.6,30.04,SSW,200,5.8,5.8,80,0.00,BKN,,0.00,134.0,WeatherDisplay:10.37,2013-01-25 17:59:00,
2013-01-25 12:04:00,22.0,16.8,30.03,SW,225,4.6,4.6,80,0.00,BKN,,0.00,137.0,WeatherDisplay:10.37,2013-01-25 18:04:00,
2013-01-25 12:09:00,22.0,16.5,30.03,South,191,3.5,3.5,79,0.00,BKN,,0.00,128.0,WeatherDisplay:10.37,2013-01-25 18:09:00,
2013-01-25 12:14:00,22.1,16.6,30.03,South,187,4.6,4.6,79,0.00,BKN,,0.00,111.0,WeatherDisplay:10.37,2013-01-25 18:14:00,
2013-01-25 12:19:00,22.1,16.6,30.03,SSE,158,3.5,3.5,79,0.00,BKN,,0.00,111.0,WeatherDisplay:10.37,2013-01-25 18:19:00,
2013-01-25 12:24:00,22.2,16.7,30.03,SSW,201,5.8,5.8,79,0.00,BKN,,0.00,90.0,WeatherDisplay:10.37,2013-01-25 18:24:00,
2013-01-25 12:29:00,22.4,16.6,30.02,South,179,4.6,4.6,78,0.00,BKN,,0.00,111.0,WeatherDisplay:10.37,2013-01-25 18:29:00,
2013-01-25 12:34:00,22.5,16.7,30.02,ESE,116,5.0,5.0,78,0.00,BKN,,0.00,105.0,WeatherDisplay:10.37,2013-01-25 18:34:00,
2013-01-25 12:39:00,22.4,16.3,30.02,SSW,210,9.2,9.2,77,0.00,BKN,,0.00,109.0,WeatherDisplay:10.37,2013-01-25 18:39:00,
2013-01-25 12:44:00,22.3,15.9,30.02,SW,230,10.4,10.4,76,0.00,BKN,,0.00,104.0,WeatherDisplay:10.37,2013-01-25 18:44:00,
2013-01-25 12:49:00,22.3,16.2,30.01,SSW,206,6.9,6.9,77,0.00,BKN,,0.00,102.0,WeatherDisplay:10.37,2013-01-25 18:49:00,
2013-01-25 12:54:00,22.4,16.3,30.02,South,174,3.0,3.0,77,0.00,BKN,,0.00,81.0,WeatherDisplay:10.37,2013-01-25 18:54:00,
2013-01-25 12:59:00,22.5,16.7,30.01,South,183,4.6,4.6,78,0.00,BKN,,0.00,130.0,WeatherDisplay:10.37,2013-01-25 18:59:00,
2013-01-25 13:04:00,22.5,16.7,30.01,SW,215,4.6,4.6,78,0.00,BKN,,0.00,118.0,WeatherDisplay:10.37,2013-01-25 19:04:00,
2013-01-25 13:09:00,22.5,16.7,30.01,WSW,237,10.4,10.4,78,0.00,BKN,,0.00,130.0,WeatherDisplay:10.37,2013-01-25 19:09:00,
2013-01-25 13:14:00,22.6,16.8,30.01,SSW,212,4.0,4.0,78,0.00,BKN,,0.00,128.0,WeatherDisplay:10.37,2013-01-25 19:14:00,
2013-01-25 13:19:00,22.7,16.6,30.01,SSW,206,10.0,10.0,77,0.00,BKN,,0.00,132.0,WeatherDisplay:10.37,2013-01-25 19:19:00,
2013-01-25 13:24:00,22.8,16.7,30.00,South,175,10.4,10.4,77,0.00,BKN,,0.00,144.0,WeatherDisplay:10.37,2013-01-25 19:24:00,
2013-01-25 13:29:00,23.0,16.9,30.01,SW,214,2.3,2.3,77,0.00,BKN,,0.00,141.0,WeatherDisplay:10.37,2013-01-25 19:29:00,
2013-01-25 13:34:00,23.2,17.1,30.00,South,187,5.8,5.8,77,0.00,BKN,,0.00,149.0,WeatherDisplay:10.37,2013-01-25 19:34:00,
2013-01-25 13:39:00,23.2,17.1,30.00,SSE,161,3.5,3.5,77,0.00,BKN,,0.00,158.0,WeatherDisplay:10.37,2013-01-25 19:39:00,
2013-01-25 13:44:00,23.4,17.3,30.00,South,170,10.4,10.4,77,0.00,BKN,,0.00,134.0,WeatherDisplay:10.37,2013-01-25 19:44:00,
2013-01-25 13:49:00,23.4,17.3,30.00,WSW,246,3.5,3.5,77,0.00,BKN,,0.00,123.0,WeatherDisplay:10.37,2013-01-25 19:49:00,
2013-01-25 13:54:00,23.5,17.3,30.00,SSW,202,5.8,5.8,77,0.00,BKN,,0.00,130.0,WeatherDisplay:10.37,2013-01-25 19:54:00,
2013-01-25 13:59:00,23.4,17.3,30.00,SW,219,3.5,3.5,77,0.00,BKN,,0.00,134.0,WeatherDisplay:10.37,2013-01-25 19:59:00,
2013-01-25 14:04:00,23.5,17.3,30.00,South,181,3.5,3.5,77,0.00,BKN,,0.00,113.0,WeatherDisplay:10.37,2013-01-25 20:04:00,
2013-01-25 14:09:00,23.6,17.4,30.00,SSW,208,3.5,3.5,77,0.00,BKN,,0.00,109.0,WeatherDisplay:10.37,2013-01-25 20:09:00,
2013-01-25 14:14:00,23.6,17.4,30.00,South,190,5.8,5.8,77,0.00,BKN,,0.00,102.0,WeatherDisplay:10.37,2013-01-25 20:14:00,
2013-01-25 14:19:00,23.6,17.4,30.00,SE,125,2.3,2.3,77,0.00,BKN,,0.00,102.0,WeatherDisplay:10.37,2013-01-25 20:19:00,
2013-01-25 14:24:00,23.6,17.4,30.00,South,174,4.6,4.6,77,0.00,BKN,,0.00,95.0,WeatherDisplay:10.37,2013-01-25 20:24:00,
2013-01-25 14:29:00,23.6,17.4,30.00,SSW,210,3.5,3.5,77,0.00,BKN,,0.00,86.0,WeatherDisplay:10.37,2013-01-25 20:29:00,
2013-01-25 14:34:00,23.7,17.5,30.01,SSW,211,3.5,3.5,77,0.00,BKN,,0.00,72.0,WeatherDisplay:10.37,2013-01-25 20:34:00,
2013-01-25 14:39:00,23.8,17.6,30.01,SSW,200,3.5,3.5,77,0.00,BKN,,0.00,63.0,WeatherDisplay:10.37,2013-01-25 20:39:00,
2013-01-25 14:44:00,23.8,17.6,30.01,SSW,205,3.5,3.5,77,0.00,BKN,,0.00,60.0,WeatherDisplay:10.37,2013-01-25 20:44:00,
2013-01-25 14:49:00,23.9,17.7,30.01,SSE,156,2.0,2.0,77,0.00,BKN,,0.00,53.0,WeatherDisplay:10.37,2013-01-25 20:49:00,
2013-01-25 14:54:00,24.0,17.5,30.01,South,189,5.0,5.0,76,0.00,BKN,,0.00,54.0,WeatherDisplay:10.37,2013-01-25 20:54:00,
2013-01-25 14:59:00,24.1,17.6,30.01,SSW,196,5.8,5.8,76,0.00,BKN,,0.00,49.0,WeatherDisplay:10.37,2013-01-25 20:59:00,
2013-01-25 15:04:00,24.2,17.7,30.01,SSW,213,2.3,0.0,76,0.00,BKN,,0.00,49.0,WeatherDisplay:10.37,2013-01-25 21:04:00,
2013-01-25 15:09:00,24.4,17.6,30.01,South,189,4.6,4.6,75,0.00,BKN,,0.00,47.0,WeatherDisplay:10.37,2013-01-25 21:09:00,
2013-01-25 15:14:00,24.5,17.7,30.01,SW,220,9.2,9.2,75,0.00,BKN,,0.00,40.0,WeatherDisplay:10.37,2013-01-25 21:14:00,
2013-01-25 15:19:00,24.7,17.3,30.02,SSW,210,5.8,5.8,73,0.00,BKN,,0.00,37.0,WeatherDisplay:10.37,2013-01-25 21:19:00,
2013-01-25 15:24:00,24.8,17.4,30.02,SW,225,4.6,4.6,73,0.00,BKN,,0.00,39.0,WeatherDisplay:10.37,2013-01-25 21:24:00,
2013-01-25 15:29:00,24.9,17.5,30.02,SW,221,4.6,4.6,73,0.00,BKN,,0.00,39.0,WeatherDisplay:10.37,2013-01-25 21:29:00,
2013-01-25 15:34:00,24.9,17.1,30.02,SW,235,11.5,11.5,72,0.00,BKN,,0.00,37.0,WeatherDisplay:10.37,2013-01-25 21:34:00,
2013-01-25 15:39:00,24.9,17.5,30.02,SSW,206,6.0,6.0,73,0.00,BKN,,0.00,33.0,WeatherDisplay:10.37,2013-01-25 21:39:00,
2013-01-25 15:44:00,24.7,17.3,30.02,SW,216,5.8,5.8,73,0.00,BKN,,0.00,30.0,WeatherDisplay:10.37,2013-01-25 21:44:00,
2013-01-25 15:49:00,24.6,17.2,30.03,SSW,205,4.6,4.6,73,0.00,BKN,,0.00,30.0,WeatherDisplay:10.37,2013-01-25 21:49:00,
2013-01-25 15:54:00,24.5,17.4,30.03,SW,214,0.0,0.0,74,0.00,BKN,,0.00,26.0,WeatherDisplay:10.37,2013-01-25 21:54:00,
2013-01-25 15:59:00,24.5,17.7,30.03,WSW,242,2.3,2.3,75,0.00,BKN,,0.00,28.0,WeatherDisplay:10.37,2013-01-25 21:59:00,
2013-01-25 16:04:00,24.4,17.6,30.03,WSW,255,1.1,1.1,75,0.00,BKN,,0.00,23.0,WeatherDisplay:10.37,2013-01-25 22:04:00,
2013-01-25 16:09:00,24.3,17.8,30.03,SW,222,3.5,3.5,76,0.00,BKN,,0.00,19.0,WeatherDisplay:10.37,2013-01-25 22:09:00,
2013-01-25 16:14:00,24.1,17.6,30.03,SSW,206,2.3,0.0,76,0.00,BKN,,0.00,18.0,WeatherDisplay:10.37,2013-01-25 22:14:00,
2013-01-25 16:19:00,24.1,17.6,30.04,SW,219,2.3,0.0,76,0.00,BKN,,0.00,16.0,WeatherDisplay:10.37,2013-01-25 22:19:00,
2013-01-25 16:24:00,24.1,17.9,30.04,SW,215,2.3,2.3,77,0.00,BKN,,0.00,14.0,WeatherDisplay:10.37,2013-01-25 22:24:00,
2013-01-25 16:29:00,24.0,17.5,30.04,SW,225,3.5,3.5,76,0.00,BKN,,0.00,12.0,WeatherDisplay:10.37,2013-01-25 22:29:00,
2013-01-25 16:34:00,23.9,17.7,30.05,WSW,239,1.1,1.1,77,0.00,BKN,,0.00,11.0,WeatherDisplay:10.37,2013-01-25 22:34:00,
2013-01-25 16:39:00,23.7,17.8,30.05,West,271,4.0,4.0,78,0.00,BKN,,0.00,7.0,WeatherDisplay:10.37,2013-01-25 22:39:00,
2013-01-25 16:44:00,23.4,17.8,30.05,WSW,250,1.1,0.0,79,0.00,BKN,,0.00,5.0,WeatherDisplay:10.37,2013-01-25 22:44:00,
2013-01-25 16:49:00,23.2,17.7,30.05,WSW,254,6.9,6.9,79,0.00,OVC,,0.00,0.0,WeatherDisplay:10.37,2013-01-25 22:49:00,
2013-01-25 16:54:00,23.0,17.7,30.06,WSW,255,4.6,4.6,80,0.00,OVC,,0.00,0.0,WeatherDisplay:10.37,2013-01-25 22:54:00,
2013-01-25 16:59:00,22.9,17.9,30.06,WSW,246,0.0,0.0,81,0.00,OVC,,0.00,0.0,WeatherDisplay:10.37,2013-01-25 22:59:00,
2013-01-25 17:04:00,22.7,17.7,30.06,WSW,256,0.0,0.0,81,0.00,CLR,,0.00,0.0,WeatherDisplay:10.37,2013-01-25 23:04:00,
2013-01-25 17:09:00,22.6,17.6,30.07,WSW,248,0.0,0.0,81,0.00,CLR,,0.00,0.0,WeatherDisplay:10.37,2013-01-25 23:09:00,
2013-01-25 17:14:00,22.5,17.5,30.07,NNW,337,0.0,0.0,81,0.00,CLR,,0.00,0.0,WeatherDisplay:10.37,2013-01-25 23:14:00,
2013-01-25 17:19:00,22.3,17.1,30.07,WNW,295,2.3,0.0,80,0.00,CLR,,0.00,0.0,WeatherDisplay:10.37,2013-01-25 23:19:00,
2013-01-25 17:24:00,22.3,17.1,30.07,WNW,283,1.0,0.0,80,0.00,CLR,,0.00,0.0,WeatherDisplay:10.37,2013-01-25 23:24:00,
2013-01-25 17:29:00,22.2,16.7,30.07,WSW,237,2.3,2.3,79,0.00,CLR,,0.00,0.0,WeatherDisplay:10.37,2013-01-25 23:29:00,
2013-01-25 17:34:00,22.2,16.4,30.07,West,259,0.0,0.0,78,0.00,CLR,,0.00,0.0,WeatherDisplay:10.37,2013-01-25 23:34:00,
2013-01-25 17:39:00,22.1,16.3,30.08,West,265,2.3,0.0,78,0.00,CLR,,0.00,0.0,WeatherDisplay:10.37,2013-01-25 23:39:00,
2013-01-25 17:44:00,22.1,16.0,30.08,North,352,0.0,0.0,77,0.00,CLR,,0.00,0.0,WeatherDisplay:10.37,2013-01-25 23:44:00,
2013-01-25 17:49:00,22.0,15.9,30.08,SW,219,0.0,0.0,77,0.00,CLR,,0.00,0.0,WeatherDisplay:10.37,2013-01-25 23:49:00,
2013-01-25 17:54:00,21.9,15.5,30.09,NW,306,0.0,0.1,76,0.00,CLR,,0.00,0.0,WeatherDisplay:10.37,2013-01-25 23:54:00,
2013-01-25 17:59:00,21.8,15.4,30.09,West,277,2.3,2.3,76,0.00,CLR,,0.00,0.0,WeatherDisplay:10.37,2013-01-25 23:59:00,
2013-01-25 18:04:00,21.7,15.3,30.09,SW,228,2.3,2.3,76,0.00,CLR,,0.00,0.0,WeatherDisplay:10.37,2013-01-26 00:04:00,
2013-01-25 18:09:00,21.6,15.2,30.09,SW,229,0.0,0.0,76,0.00,CLR,,0.00,0.0,WeatherDisplay:10.37,2013-01-26 00:09:00,
2013-01-25 18:14:00,21.5,14.8,30.10,NNW,337,0.0,0.0,75,0.00,CLR,,0.00,0.0,WeatherDisplay:10.37,2013-01-26 00:14:00,
2013-01-25 18:19:00,21.4,14.7,30.10,SW,214,2.3,2.3,75,0.00,CLR,,0.00,0.0,WeatherDisplay:10.37,2013-01-26 00:19:00,
2013-01-25 18:24:00,21.3,14.6,30.10,SW,228,0.0,0.0,75,0.00,CLR,,0.00,0.0,WeatherDisplay:10.37,2013-01-26 00:24:00,
2013-01-25 18:29:00,21.2,14.5,30.10,NW,318,0.0,0.0,75,0.00,CLR,,0.00,0.0,WeatherDisplay:10.37,2013-01-26 00:29:00,
2013-01-25 18:34:00,21.1,14.4,30.11,SSW,201,0.0,0.0,75,0.00,CLR,,0.00,0.0,WeatherDisplay:10.37,2013-01-26 00:34:00,
2013-01-25 18:39:00,21.0,14.6,30.11,SW,229,0.0,0.0,76,0.00,CLR,,0.00,0.0,WeatherDisplay:10.37,2013-01-26 00:39:00,
2013-01-25 18:44:00,21.0,14.6,30.11,SW,229,0.0,0.0,76,0.00,CLR,,0.00,0.0,WeatherDisplay:10.37,2013-01-26 00:44:00,
2013-01-25 18:49:00,20.9,14.5,30.12,SW,229,0.0,0.0,76,0.00,CLR,,0.00,0.0,WeatherDisplay:10.37,2013-01-26 00:49:00,
2013-01-25 18:54:00,20.9,14.5,30.12,SW,235,2.3,0.0,76,0.00,CLR,,0.00,0.0,WeatherDisplay:10.37,2013-01-26 00:54:00,
2013-01-25 18:59:00,20.7,14.3,30.12,SW,235,0.0,0.0,76,0.00,CLR,,0.00,0.0,WeatherDisplay:10.37,2013-01-26 00:59:00,
2013-01-25 19:04:00,20.5,14.1,30.12,NW,317,0.0,0.0,76,0.00,CLR,,0.00,0.0,WeatherDisplay:10.37,2013-01-26 01:04:00,
2013-01-25 19:09:00,20.2,13.8,30.12,West,264,0.0,0.0,76,0.00,CLR,,0.00,0.0,WeatherDisplay:10.37,2013-01-26 01:09:00,
2013-01-25 19:14:00,19.9,13.6,30.12,West,268,0.0,0.0,76,0.00,CLR,,0.00,0.0,WeatherDisplay:10.37,2013-01-26 01:14:00,
2013-01-25 19:19:00,19.8,13.5,30.12,West,268,0.0,0.0,76,0.00,CLR,,0.00,0.0,WeatherDisplay:10.37,2013-01-26 01:19:00,
2013-01-25 19:24:00,19.6,13.6,30.13,West,268,0.0,0.0,77,0.00,CLR,,0.00,0.0,WeatherDisplay:10.37,2013-01-26 01:24:00,
2013-01-25 19:29:00,19.5,13.8,30.13,WSW,239,0.0,0.0,78,0.00,CLR,,0.00,0.0,WeatherDisplay:10.37,2013-01-26 01:29:00,
2013-01-25 19:34:00,19.6,13.9,30.14,WSW,241,0.0,0.0,78,0.00,CLR,,0.00,0.0,WeatherDisplay:10.37,2013-01-26 01:34:00,
2013-01-25 19:39:00,19.7,14.0,30.14,NW,318,1.1,1.1,78,0.00,CLR,,0.00,0.0,WeatherDisplay:10.37,2013-01-26 01:39:00,
2013-01-25 19:44:00,19.8,14.0,30.14,SW,233,0.0,0.0,78,0.00,CLR,,0.00,0.0,WeatherDisplay:10.37,2013-01-26 01:44:00,
2013-01-25 19:49:00,19.8,14.0,30.14,SW,233,0.0,0.0,78,0.00,CLR,,0.00,0.0,WeatherDisplay:10.37,2013-01-26 01:49:00,
2013-01-25 19:54:00,19.8,14.0,30.14,North,10,0.0,0.0,78,0.00,CLR,,0.00,0.0,WeatherDisplay:10.37,2013-01-26 01:54:00,
2013-01-25 19:59:00,19.8,14.0,30.14,North,9,0.0,0.0,78,0.00,CLR,,0.00,0.0,WeatherDisplay:10.37,2013-01-26 01:59:00,
2013-01-25 20:04:00,19.7,14.0,30.14,WSW,249,0.0,0.0,78,0.00,CLR,,0.00,0.0,WeatherDisplay:10.37,2013-01-26 02:04:00,
2013-01-25 20:09:00,19.5,13.8,30.15,SSW,194,0.0,0.0,78,0.00,CLR,,0.00,0.0,WeatherDisplay:10.37,2013-01-26 02:09:00,
2013-01-25 20:14:00,19.5,13.8,30.15,North,9,1.1,1.1,78,0.00,CLR,,0.00,0.0,WeatherDisplay:10.37,2013-01-26 02:14:00,
2013-01-25 20:19:00,19.5,13.5,30.14,SW,229,1.1,1.1,77,0.00,CLR,,0.00,0.0,WeatherDisplay:10.37,2013-01-26 02:19:00,
2013-01-25 20:24:00,19.5,13.5,30.14,WSW,246,0.0,0.0,77,0.00,CLR,,0.00,0.0,WeatherDisplay:10.37,2013-01-26 02:24:00,
2013-01-25 20:29:00,19.5,13.5,30.14,WNW,282,3.5,3.5,77,0.00,CLR,,0.00,0.0,WeatherDisplay:10.37,2013-01-26 02:29:00,
2013-01-25 20:34:00,19.6,13.6,30.15,NNE,19,0.0,0.1,77,0.00,CLR,,0.00,0.0,WeatherDisplay:10.37,2013-01-26 02:34:00,
2013-01-25 20:39:00,19.6,13.6,30.15,SSW,205,1.1,1.1,77,0.00,CLR,,0.00,0.0,WeatherDisplay:10.37,2013-01-26 02:39:00,
2013-01-25 20:44:00,19.6,13.6,30.15,SSW,206,0.0,0.0,77,0.00,CLR,,0.00,0.0,WeatherDisplay:10.37,2013-01-26 02:44:00,
2013-01-25 20:49:00,19.3,13.3,30.15,WSW,257,0.0,0.0,77,0.00,CLR,,0.00,0.0,WeatherDisplay:10.37,2013-01-26 02:49:00,
2013-01-25 20:54:00,19.1,13.1,30.16,WSW,240,0.0,0.0,77,0.00,CLR,,0.00,0.0,WeatherDisplay:10.37,2013-01-26 02:54:00,
2013-01-25 20:59:00,18.9,12.9,30.16,WSW,241,0.0,0.0,77,0.00,CLR,,0.00,0.0,WeatherDisplay:10.37,2013-01-26 02:59:00,
2013-01-25 21:04:00,18.7,12.7,30.16,SW,231,0.0,0.0,77,0.00,CLR,,0.00,0.0,WeatherDisplay:10.37,2013-01-26 03:04:00,
2013-01-25 21:09:00,18.5,12.8,30.17,SW,231,0.0,0.0,78,0.00,CLR,,0.00,0.0,WeatherDisplay:10.37,2013-01-26 03:09:00,
2013-01-25 21:14:00,18.4,12.7,30.17,SW,231,0.0,0.0,78,0.00,CLR,,0.00,0.0,WeatherDisplay:10.37,2013-01-26 03:14:00,
2013-01-25 21:19:00,18.4,13.0,30.17,SW,231,0.0,0.0,79,0.00,CLR,,0.00,0.0,WeatherDisplay:10.37,2013-01-26 03:19:00,
2013-01-25 21:24:00,18.4,13.3,30.18,SW,231,0.0,0.0,80,0.00,CLR,,0.00,0.0,WeatherDisplay:10.37,2013-01-26 03:24:00,
2013-01-25 21:29:00,18.4,13.3,30.17,SW,231,0.0,0.0,80,0.00,CLR,,0.00,0.0,WeatherDisplay:10.37,2013-01-26 03:29:00,
2013-01-25 21:34:00,18.4,13.3,30.18,SW,231,0.0,0.0,80,0.00,CLR,,0.00,0.0,WeatherDisplay:10.37,2013-01-26 03:34:00,
2013-01-25 21:39:00,18.4,13.3,30.18,SW,231,0.0,0.0,80,0.00,CLR,,0.00,0.0,WeatherDisplay:10.37,2013-01-26 03:39:00,
2013-01-25 21:44:00,18.3,13.2,30.18,NNW,335,0.0,0.0,80,0.00,CLR,,0.00,0.0,WeatherDisplay:10.37,2013-01-26 03:44:00,
2013-01-25 21:49:00,18.2,13.1,30.18,NNW,335,0.0,0.0,80,0.00,CLR,,0.00,0.0,WeatherDisplay:10.37,2013-01-26 03:49:00,
2013-01-25 21:54:00,18.2,13.1,30.18,NNW,335,0.0,0.0,80,0.00,CLR,,0.00,0.0,WeatherDisplay:10.37,2013-01-26 03:54:00,
2013-01-25 21:59:00,18.1,13.0,30.18,WNW,287,3.5,3.5,80,0.00,CLR,,0.00,0.0,WeatherDisplay:10.37,2013-01-26 03:59:00,
2013-01-25 22:04:00,18.1,13.0,30.18,West,281,1.0,1.0,80,0.00,CLR,,0.00,0.0,WeatherDisplay:10.37,2013-01-26 04:04:00,
2013-01-25 22:09:00,18.0,12.9,30.19,WNW,289,3.5,3.5,80,0.00,CLR,,0.00,0.0,WeatherDisplay:10.37,2013-01-26 04:09:00,
2013-01-25 22:14:00,17.9,12.8,30.19,SSW,195,1.1,0.0,80,0.00,CLR,,0.00,0.0,WeatherDisplay:10.37,2013-01-26 04:14:00,
2013-01-25 22:19:00,17.8,12.4,30.20,WNW,287,0.0,0.0,79,0.00,CLR,,0.00,0.0,WeatherDisplay:10.37,2013-01-26 04:19:00,
2013-01-25 22:24:00,17.7,12.3,30.20,SW,223,2.3,0.0,79,0.00,CLR,,0.00,0.0,WeatherDisplay:10.37,2013-01-26 04:24:00,
2013-01-25 22:29:00,17.6,12.5,30.20,SW,223,0.0,0.0,80,0.00,CLR,,0.00,0.0,WeatherDisplay:10.37,2013-01-26 04:29:00,
2013-01-25 22:34:00,17.5,12.1,30.20,SW,223,0.0,0.0,79,0.00,CLR,,0.00,0.0,WeatherDisplay:10.37,2013-01-26 04:34:00,
2013-01-25 22:39:00,17.3,12.2,30.20,SW,223,0.0,0.0,80,0.00,CLR,,0.00,0.0,WeatherDisplay:10.37,2013-01-26 04:39:00,
2013-01-25 22:44:00,17.1,12.0,30.21,SW,223,0.0,0.0,80,0.00,CLR,,0.00,0.0,WeatherDisplay:10.37,2013-01-26 04:44:00,
2013-01-25 22:49:00,16.9,11.8,30.21,SW,223,0.0,0.0,80,0.00,CLR,,0.00,0.0,WeatherDisplay:10.37,2013-01-26 04:49:00,
2013-01-25 22:54:00,16.8,11.7,30.22,WSW,256,0.0,0.0,80,0.00,CLR,,0.00,0.0,WeatherDisplay:10.37,2013-01-26 04:54:00,
2013-01-25 22:59:00,16.7,11.6,30.22,WSW,256,0.0,0.0,80,0.00,CLR,,0.00,0.0,WeatherDisplay:10.37,2013-01-26 04:59:00,
2013-01-25 23:00:00,16.7,11.6,30.22,WSW,256,1.1,0.0,80,0.00,CLR,,0.00,0.0,WeatherDisplay:10.37,2013-01-26 05:00:00,
2013-01-25 23:03:00,16.5,11.4,30.22,WSW,256,0.0,0.0,80,0.00,CLR,,0.00,0.0,WeatherDisplay:10.37,2013-01-26 05:03:00,
2013-01-25 23:08:00,16.4,11.6,30.22,WNW,282,0.0,0.0,81,0.00,CLR,,0.00,0.0,WeatherDisplay:10.37,2013-01-26 05:08:00,
2013-01-25 23:13:00,16.3,11.5,30.23,WNW,282,0.0,0.0,81,0.00,CLR,,0.00,0.0,WeatherDisplay:10.37,2013-01-26 05:13:00,
2013-01-25 23:18:00,16.2,11.4,30.23,WNW,282,0.0,0.0,81,0.00,CLR,,0.00,0.0,WeatherDisplay:10.37,2013-01-26 05:18:00,
2013-01-25 23:23:00,16.1,11.3,30.23,SSW,198,0.0,0.0,81,0.00,CLR,,0.00,0.0,WeatherDisplay:10.37,2013-01-26 05:23:00,
2013-01-25 23:28:00,16.0,11.2,30.23,WNW,296,0.0,0.0,81,0.00,CLR,,0.00,0.0,WeatherDisplay:10.37,2013-01-26 05:28:00,
2013-01-25 23:33:00,15.9,11.1,30.24,WSW,244,0.0,0.0,81,0.00,CLR,,0.00,0.0,WeatherDisplay:10.37,2013-01-26 05:33:00,
2013-01-25 23:38:00,15.8,11.0,30.24,WSW,256,0.0,0.0,81,0.00,CLR,,0.00,0.0,WeatherDisplay:10.37,2013-01-26 05:38:00,
2013-01-25 23:43:00,15.6,10.8,30.24,West,262,1.1,1.1,81,0.00,CLR,,0.00,0.0,WeatherDisplay:10.37,2013-01-26 05:43:00,
2013-01-25 23:48:00,15.5,10.7,30.24,WSW,244,0.0,0.0,81,0.00,CLR,,0.00,0.0,WeatherDisplay:10.37,2013-01-26 05:48:00,
2013-01-25 23:53:00,15.3,10.5,30.24,WSW,239,3.5,3.5,81,0.00,CLR,,0.00,0.0,WeatherDisplay:10.37,2013-01-26 05:53:00,
2013-01-25 23:58:00,15.1,10.3,30.25,SW,224,0.0,0.0,81,0.00,CLR,,0.00,0.0,WeatherDisplay:10.37,2013-01-26 05:58:00,